Time;durP1;ratioP1;P1;durP2;ratioP2;P2;SDS_P1;SDS_P2;PMS_P1;PMS_P2;Temp;Humidity;BMP_temperature;BMP_pressure;BME280_temperature;BME280_humidity;BME280_pressure;Samples;Min_cycle;Max_cycle;Signal;HPM_P1;HPM_P2
2023/12/14 15:23:16;;;;;;;1.52;1.02;;;;;;;9.89;34.26;92275.00;5069323;28;20371;-78
2023/12/14 15:25:42;;;;;;;1.50;1.15;;;;;;;9.73;34.56;92275.25;5052233;28;20233;-76
2023/12/14 15:28:07;;;;;;;1.30;1.20;;;;;;;9.61;35.49;92285.34;5067624;28;20111;-77
2023/12/14 15:30:33;;;;;;;1.17;1.08;;;;;;;9.50;35.74;92289.16;5066616;28;20041;-78
2023/12/14 15:32:58;;;;;;;0.90;0.90;;;;;;;9.36;36.11;92289.88;5066912;28;20036;-78
2023/12/14 15:35:24;;;;;;;1.10;1.00;;;;;;;9.34;35.17;92296.44;5050198;28;20048;-78
2023/12/14 15:37:49;;;;;;;1.08;1.00;;;;;;;9.28;35.33;92308.81;5048397;28;20173;-78
2023/12/14 15:40:15;;;;;;;1.08;1.08;;;;;;;9.20;35.63;92306.06;5046124;28;20073;-78
2023/12/14 15:42:41;;;;;;;1.00;1.00;;;;;;;9.13;35.99;92306.41;5061112;28;20052;-78
2023/12/14 15:45:08;;;;;;;0.85;0.85;;;;;;;9.04;36.35;92308.09;5066729;28;20063;-78
2023/12/14 15:47:33;;;;;;;1.10;1.00;;;;;;;8.98;36.64;92324.84;5059036;28;20049;-78
2023/12/14 15:49:59;;;;;;;1.00;1.00;;;;;;;8.90;37.13;92323.66;5046911;28;20041;-77
2023/12/14 15:52:25;;;;;;;1.00;1.00;;;;;;;8.86;36.70;92328.66;5047656;28;20069;-78
2023/12/14 15:54:50;;;;;;;1.10;1.00;;;;;;;8.75;37.33;92337.66;5047484;28;20124;-78
2023/12/14 15:57:17;;;;;;;1.20;1.10;;;;;;;8.64;37.32;92336.19;5046479;28;20049;-78
2023/12/14 15:59:43;;;;;;;0.90;0.90;;;;;;;8.58;37.43;92338.09;5050683;28;20021;-78
2023/12/14 16:02:09;;;;;;;1.10;1.10;;;;;;;8.49;37.98;92340.53;5050212;28;20039;-78
2023/12/14 16:04:34;;;;;;;0.90;0.90;;;;;;;8.44;38.62;92343.16;5045984;28;20524;-78
2023/12/14 16:07:00;;;;;;;0.80;0.80;;;;;;;8.43;37.70;92341.63;5063767;28;20036;-78
2023/12/14 16:09:28;;;;;;;1.00;1.00;;;;;;;8.38;38.21;92346.88;5061043;28;20051;-78
2023/12/14 16:11:53;;;;;;;0.85;0.85;;;;;;;8.29;37.92;92349.28;5050110;28;20492;-78
2023/12/14 16:14:19;;;;;;;1.10;1.10;;;;;;;8.21;38.46;92344.66;5066591;28;20112;-77
2023/12/14 16:16:45;;;;;;;1.20;1.10;;;;;;;8.07;40.05;92348.97;5067394;28;20131;-77
2023/12/14 16:19:11;;;;;;;1.40;1.15;;;;;;;7.96;41.31;92360.53;5067459;28;20045;-78
2023/12/14 16:21:36;;;;;;;1.20;1.10;;;;;;;7.97;38.76;92368.06;5065046;28;20043;-78
2023/12/14 16:24:04;;;;;;;1.00;1.00;;;;;;;7.92;39.18;92371.50;5075257;28;20051;-78
2023/12/14 16:26:30;;;;;;;1.00;1.00;;;;;;;7.91;39.67;92379.59;5074639;28;20041;-78
2023/12/14 16:28:56;;;;;;;1.05;1.02;;;;;;;7.78;40.71;92373.16;5060664;28;20540;-76
2023/12/14 16:31:21;;;;;;;1.02;0.98;;;;;;;7.70;40.78;92377.13;5064153;28;20067;-78
2023/12/14 16:33:47;;;;;;;0.90;0.90;;;;;;;7.64;40.99;92375.59;5057748;28;20041;-78
2023/12/14 16:36:14;;;;;;;1.05;1.02;;;;;;;7.50;42.75;92377.25;5034997;28;20448;-78
2023/12/14 16:38:44;;;;;;;0.95;0.93;;;;;;;7.43;42.56;92379.34;5036571;28;20045;-80
2023/12/14 16:41:10;;;;;;;1.10;1.00;;;;;;;7.38;41.46;92382.75;5056241;28;20044;-78
2023/12/14 16:43:37;;;;;;;1.08;1.08;;;;;;;7.39;41.53;92389.53;5048300;28;20416;-79
2023/12/14 16:46:03;;;;;;;1.10;1.10;;;;;;;7.39;41.55;92396.56;5037433;28;20489;-78
2023/12/14 16:48:29;;;;;;;1.38;1.10;;;;;;;7.40;42.13;92396.28;5049108;28;20087;-78
2023/12/14 16:50:55;;;;;;;1.50;1.20;;;;;;;7.39;41.73;92404.38;5054494;28;20109;-76
2023/12/14 16:53:25;;;;;;;1.10;1.00;;;;;;;7.30;41.97;92410.13;5036717;28;20126;-78
2023/12/14 16:55:58;;;;;;;0.90;0.90;;;;;;;7.19;43.93;92413.06;5042372;28;20033;-80
2023/12/14 16:58:27;;;;;;;1.13;0.95;;;;;;;7.11;44.32;92419.56;5037098;28;20040;-80
2023/12/14 17:00:53;;;;;;;1.10;1.05;;;;;;;7.04;45.11;92419.09;5041923;28;20136;-80
2023/12/14 17:03:20;;;;;;;3.70;2.30;;;;;;;7.04;42.17;92427.66;5047769;28;20056;-78
2023/12/14 17:05:46;;;;;;;1.83;1.40;;;;;;;6.97;42.48;92427.16;5039696;28;20109;-80
2023/12/14 17:08:15;;;;;;;4.15;1.00;;;;;;;6.93;44.31;92435.78;5037630;28;20036;-81
2023/12/14 17:10:42;;;;;;;1.10;1.00;;;;;;;6.86;44.05;92439.41;5039048;28;20045;-81
2023/12/14 17:13:17;;;;;;;1.20;1.10;;;;;;;6.82;44.74;92441.00;5038707;28;20409;-81
2023/12/14 17:15:48;;;;;;;1.02;1.02;;;;;;;6.75;45.56;92445.69;5050600;28;20037;-81
2023/12/14 17:18:21;;;;;;;1.27;1.17;;;;;;;6.79;43.90;92451.94;5044561;28;20041;-81
2023/12/14 17:20:46;;;;;;;2.28;1.13;;;;;;;6.77;43.11;92456.63;5054002;28;20101;-81
2023/12/14 17:23:25;;;;;;;1.05;1.00;;;;;;;6.66;45.25;92458.47;5046754;28;20041;-81
2023/12/14 17:26:05;;;;;;;1.00;1.00;;;;;;;6.60;46.37;92462.13;5058741;28;20036;-81
2023/12/14 17:28:31;;;;;;;1.13;0.98;;;;;;;6.50;46.69;92474.34;5058290;28;20045;-81
2023/12/14 17:30:58;;;;;;;0.90;0.90;;;;;;;6.50;45.90;92479.53;5056946;28;20044;-80
2023/12/14 17:33:24;;;;;;;0.90;0.90;;;;;;;6.50;45.83;92479.53;5058012;28;20120;-80
2023/12/14 17:35:50;;;;;;;0.90;0.90;;;;;;;6.53;44.27;92484.22;5047067;28;20479;-80
2023/12/14 17:38:18;;;;;;;0.88;0.88;;;;;;;6.52;44.99;92493.84;5043717;28;20120;-80
2023/12/14 17:40:48;;;;;;;1.00;1.00;;;;;;;6.49;45.24;92493.59;5038007;28;20041;-80
2023/12/14 17:43:17;;;;;;;1.00;1.00;;;;;;;6.45;45.85;92488.13;5036870;28;20037;-80
2023/12/14 17:45:46;;;;;;;1.27;1.10;;;;;;;6.39;45.87;92486.56;5048230;28;20043;-79
2023/12/14 17:48:13;;;;;;;1.20;1.10;;;;;;;6.38;45.93;92501.38;5058555;28;20075;-80
2023/12/14 17:50:40;;;;;;;1.10;1.00;;;;;;;6.34;45.60;92502.94;5056571;28;20033;-80
2023/12/14 17:53:17;;;;;;;1.10;1.00;;;;;;;6.29;45.64;92510.72;5053084;28;20029;-80
2023/12/14 17:55:50;;;;;;;1.77;1.20;;;;;;;6.24;46.67;92513.34;5042743;28;20081;-81
2023/12/14 17:58:16;;;;;;;1.08;1.00;;;;;;;6.20;46.69;92517.47;5049431;28;20099;-80
2023/12/14 18:00:45;;;;;;;1.23;1.10;;;;;;;6.08;46.76;92509.94;5045940;28;20131;-80
2023/12/14 18:03:25;;;;;;;0.90;0.90;;;;;;;6.08;47.08;92522.13;5048400;28;20063;-82
2023/12/14 18:05:53;;;;;;;0.90;0.90;;;;;;;6.07;46.99;92520.56;5045832;28;20030;-81
2023/12/14 18:08:18;;;;;;;1.20;1.10;;;;;;;6.08;46.98;92529.91;5040281;28;20047;-81
2023/12/14 18:10:44;;;;;;;3.03;1.33;;;;;;;6.10;46.93;92533.03;5041696;28;20033;-81
2023/12/14 18:13:09;;;;;;;1.30;1.20;;;;;;;6.12;46.34;92536.16;5042959;28;20037;-80
2023/12/14 18:15:36;;;;;;;1.10;1.10;;;;;;;6.15;46.18;92538.28;5044334;28;20118;-80
2023/12/14 18:18:02;;;;;;;1.10;1.00;;;;;;;6.15;45.31;92535.69;5048532;28;20049;-80
2023/12/14 18:20:29;;;;;;;1.20;1.10;;;;;;;6.13;46.46;92545.56;5038959;28;20036;-79
2023/12/14 18:22:56;;;;;;;1.20;1.10;;;;;;;6.10;46.21;92554.63;5049791;28;20060;-80
2023/12/14 18:25:22;;;;;;;1.13;1.13;;;;;;;6.07;47.32;92555.13;5052012;28;20040;-82
2023/12/14 18:27:52;;;;;;;2.60;1.30;;;;;;;6.06;46.10;92553.59;5051655;28;20625;-79
2023/12/14 18:30:22;;;;;;;1.40;1.13;;;;;;;6.01;47.06;92554.34;5048359;28;20079;-80
2023/12/14 18:32:51;;;;;;;1.10;1.10;;;;;;;5.90;49.21;92560.53;5039334;28;20146;-80
2023/12/14 18:35:17;;;;;;;1.75;0.98;;;;;;;5.80;50.31;92566.44;5042060;28;20044;-79
2023/12/14 18:37:53;;;;;;;1.00;0.90;;;;;;;5.77;49.16;92563.59;5044168;28;20056;-80
2023/12/14 18:40:22;;;;;;;1.02;0.93;;;;;;;5.70;48.47;92563.84;5050041;28;20045;-79
2023/12/14 18:42:47;;;;;;;1.48;1.00;;;;;;;5.72;48.82;92571.34;5051412;28;20048;-81
2023/12/14 18:45:13;;;;;;;0.95;0.95;;;;;;;5.76;47.37;92570.59;5042981;28;20045;-80
2023/12/14 18:47:50;;;;;;;1.00;1.00;;;;;;;5.77;47.65;92576.59;5049081;28;20528;-80
2023/12/14 18:50:16;;;;;;;0.90;0.90;;;;;;;5.69;47.71;92574.47;5044808;28;20048;-81
2023/12/14 18:52:42;;;;;;;1.30;1.15;;;;;;;5.67;48.36;92579.13;5042117;28;20033;-81
2023/12/14 18:55:08;;;;;;;1.20;1.10;;;;;;;5.68;48.08;92583.31;5044901;28;20109;-81
2023/12/14 18:57:34;;;;;;;1.00;1.00;;;;;;;5.60;50.06;92582.72;5052524;28;20092;-79
2023/12/14 18:59:59;;;;;;;1.30;1.20;;;;;;;5.55;49.63;92595.69;5039367;28;20080;-80
2023/12/14 19:02:27;;;;;;;0.93;0.93;;;;;;;5.50;49.54;92598.28;5050365;28;20097;-81
2023/12/14 19:04:53;;;;;;;1.00;1.00;;;;;;;5.45;50.48;92607.84;5041995;28;20101;-79
2023/12/14 19:07:19;;;;;;;1.20;1.10;;;;;;;5.40;50.80;92608.59;5031435;28;20143;-77
2023/12/14 19:09:44;;;;;;;0.73;0.70;;;;;;;5.37;49.79;92598.72;5036468;28;20504;-83
2023/12/14 19:12:10;;;;;;;1.13;1.02;;;;;;;5.36;49.46;92607.53;5037833;28;20041;-79
2023/12/14 19:14:35;;;;;;;0.80;0.80;;;;;;;5.38;48.88;92601.06;5037809;28;20030;-79
2023/12/14 19:17:03;;;;;;;3.17;1.13;;;;;;;5.38;49.29;92605.44;5038214;28;20113;-79
2023/12/14 19:19:29;;;;;;;0.88;0.88;;;;;;;5.38;49.76;92611.44;5046855;28;20029;-80
2023/12/14 19:21:55;;;;;;;0.90;0.90;;;;;;;5.40;49.96;92606.00;5043380;28;20033;-79
2023/12/14 19:24:20;;;;;;;0.80;0.80;;;;;;;5.43;48.94;92610.69;5034549;28;20679;-79
2023/12/14 19:26:46;;;;;;;1.13;1.02;;;;;;;5.41;49.00;92616.13;5042286;28;20037;-79
2023/12/14 19:29:12;;;;;;;1.20;1.10;;;;;;;5.43;49.31;92615.91;5041228;28;20195;-79
2023/12/14 19:31:38;;;;;;;1.00;0.90;;;;;;;5.49;48.22;92619.28;5028524;28;20033;-79
2023/12/14 19:34:03;;;;;;;1.00;1.00;;;;;;;5.49;48.76;92627.06;5035287;28;20037;-79
2023/12/14 19:36:30;;;;;;;1.20;1.10;;;;;;;5.46;48.94;92630.97;5036099;28;20043;-79
2023/12/14 19:39:00;;;;;;;1.20;1.10;;;;;;;5.42;49.42;92637.69;5045177;28;20091;-81
2023/12/14 19:41:25;;;;;;;1.20;1.10;;;;;;;5.36;49.52;92639.47;5035651;28;20056;-79
2023/12/14 19:43:58;;;;;;;1.80;1.23;;;;;;;5.34;49.63;92641.53;5043001;28;20044;-79
2023/12/14 19:46:32;;;;;;;1.20;1.10;;;;;;;5.33;49.67;92644.38;5051664;28;20045;-79
2023/12/14 19:49:03;;;;;;;1.10;1.10;;;;;;;5.27;52.09;92647.94;5043472;28;20117;-79
2023/12/14 19:51:31;;;;;;;1.20;1.10;;;;;;;5.16;53.37;92650.50;5035923;28;20056;-79
2023/12/14 19:54:03;;;;;;;1.25;1.15;;;;;;;5.10;51.72;92656.66;5035215;28;20095;-79
2023/12/14 19:56:47;;;;;;;1.02;1.02;;;;;;;5.12;50.78;92654.59;5037900;28;20401;-79
2023/12/14 19:59:33;;;;;;;1.00;1.00;;;;;;;5.16;49.68;92663.47;5043709;28;20121;-80
2023/12/14 20:02:00;;;;;;;0.90;0.90;;;;;;;5.32;47.97;92676.56;5042958;28;20052;-79
2023/12/14 20:04:25;;;;;;;1.05;0.98;;;;;;;5.40;48.19;92676.88;5035792;28;20037;-79
2023/12/14 20:06:58;;;;;;;0.82;0.82;;;;;;;5.42;48.73;92674.03;5048168;28;20048;-79
2023/12/14 20:09:24;;;;;;;1.10;1.00;;;;;;;5.52;47.92;92676.69;5047713;28;20083;-79
2023/12/14 20:11:50;;;;;;;1.00;1.00;;;;;;;5.49;48.29;92682.38;5042816;28;20017;-79
2023/12/14 20:14:20;;;;;;;2.95;1.13;;;;;;;5.43;50.06;92684.16;5040557;28;20460;-79
2023/12/14 20:16:50;;;;;;;1.25;1.00;;;;;;;5.34;50.20;92688.25;5044983;28;20029;-79
2023/12/14 20:19:24;;;;;;;1.00;1.00;;;;;;;5.32;50.08;92697.34;5046819;28;20068;-79
2023/12/14 20:21:50;;;;;;;1.25;1.15;;;;;;;5.27;50.38;92692.88;5043399;28;20035;-79
2023/12/14 20:24:15;;;;;;;0.82;0.82;;;;;;;5.20;52.14;92700.88;5040262;28;20036;-80
2023/12/14 20:26:41;;;;;;;1.33;1.10;;;;;;;5.08;54.33;92705.44;5044826;28;20046;-80
2023/12/14 20:29:06;;;;;;;2.95;1.60;;;;;;;4.98;53.66;92702.75;5048371;28;20428;-78
2023/12/14 20:31:34;;;;;;;1.77;1.20;;;;;;;4.89;54.38;92702.41;5049999;28;20116;-79
2023/12/14 20:34:00;;;;;;;0.93;0.93;;;;;;;4.82;54.57;92711.41;5045614;28;20047;-79
2023/12/14 20:36:25;;;;;;;2.00;1.38;;;;;;;4.77;55.25;92720.72;5038392;28;20416;-79
2023/12/14 20:38:51;;;;;;;1.30;1.10;;;;;;;4.71;55.72;92726.09;5034865;28;20233;-79
2023/12/14 20:41:16;;;;;;;2.55;1.30;;;;;;;4.80;54.36;92735.78;5049098;28;20034;-80
2023/12/14 20:43:42;;;;;;;1.17;1.08;;;;;;;4.83;52.66;92736.34;5035521;28;20041;-79
2023/12/14 20:46:07;;;;;;;1.13;1.02;;;;;;;4.90;52.58;92739.50;5050749;28;20089;-80
2023/12/14 20:48:33;;;;;;;0.90;0.90;;;;;;;5.01;51.18;92736.00;5051585;28;20028;-81
2023/12/14 20:50:59;;;;;;;1.33;1.20;;;;;;;5.06;51.67;92749.00;5035395;28;20110;-80
2023/12/14 20:53:24;;;;;;;1.08;1.00;;;;;;;5.08;52.04;92751.34;5034062;28;20140;-79
2023/12/14 20:55:53;;;;;;;1.20;1.10;;;;;;;5.09;52.41;92758.09;5042974;28;20037;-80
2023/12/14 20:58:19;;;;;;;1.10;1.00;;;;;;;5.56;50.54;92755.69;5048519;28;20400;-79
2023/12/14 21:00:44;;;;;;;1.58;1.20;;;;;;;5.43;51.74;92763.88;5041423;28;20049;-79
2023/12/14 21:03:11;;;;;;;1.98;1.27;;;;;;;5.33;53.09;92758.59;5043760;28;20059;-79
2023/12/14 21:05:37;;;;;;;1.10;1.02;;;;;;;5.21;54.02;92772.50;5038713;28;20045;-80
2023/12/14 21:08:03;;;;;;;1.38;1.02;;;;;;;5.11;54.77;92766.44;5037741;28;20039;-79
2023/12/14 21:10:29;;;;;;;1.35;1.20;;;;;;;5.16;54.47;92767.28;5050509;28;20037;-77
2023/12/14 21:12:55;;;;;;;1.20;1.10;;;;;;;5.36;53.46;92778.88;5035688;28;20041;-78
2023/12/14 21:15:20;;;;;;;1.00;1.00;;;;;;;5.43;52.89;92776.88;5045777;28;20029;-78
2023/12/14 21:17:46;;;;;;;1.13;1.02;;;;;;;5.31;52.87;92777.00;5045165;28;20524;-78
2023/12/14 21:20:12;;;;;;;0.98;0.98;;;;;;;5.51;50.88;92779.00;5039392;28;20491;-78
2023/12/14 21:22:37;;;;;;;1.20;1.10;;;;;;;5.51;51.06;92781.59;5034884;28;20065;-79
2023/12/14 21:25:04;;;;;;;1.00;1.00;;;;;;;5.49;51.73;92778.44;5038306;28;20041;-78
2023/12/14 21:27:48;;;;;;;1.35;1.13;;;;;;;5.50;52.04;92780.03;5035617;28;20397;-79
2023/12/14 21:30:17;;;;;;;3.72;2.20;;;;;;;5.51;51.04;92781.59;5041942;28;20037;-79
2023/12/14 21:32:43;;;;;;;1.20;1.10;;;;;;;5.51;50.90;92791.97;5053213;28;20025;-78
2023/12/14 21:35:09;;;;;;;1.55;1.00;;;;;;;5.52;51.10;92801.34;5046994;28;20044;-78
2023/12/14 21:37:37;;;;;;;1.13;1.02;;;;;;;5.50;52.76;92798.22;5045028;28;20381;-78
2023/12/14 21:40:05;;;;;;;1.67;1.15;;;;;;;5.48;51.49;92795.06;5036879;28;20425;-78
2023/12/14 21:42:31;;;;;;;1.00;1.00;;;;;;;5.45;51.54;92787.78;5033503;28;20083;-77
2023/12/14 21:44:57;;;;;;;1.13;1.02;;;;;;;5.38;51.60;92797.56;5040564;28;20504;-77
2023/12/14 21:47:22;;;;;;;1.10;1.10;;;;;;;5.31;51.81;92802.19;5043633;28;20025;-77
2023/12/14 21:49:48;;;;;;;1.30;1.20;;;;;;;5.24;52.86;92807.56;5043361;28;20040;-77
2023/12/14 21:52:14;;;;;;;1.13;1.02;;;;;;;5.20;52.11;92802.09;5041336;28;20257;-76
2023/12/14 21:54:39;;;;;;;1.13;1.10;;;;;;;5.21;51.18;92803.66;5047208;28;20037;-78
2023/12/14 21:57:05;;;;;;;1.00;1.00;;;;;;;5.20;51.61;92799.50;5049817;28;20037;-78
2023/12/14 21:59:31;;;;;;;1.00;1.00;;;;;;;5.16;52.62;92806.22;5049373;28;20082;-76
2023/12/14 22:01:57;;;;;;;1.67;1.30;;;;;;;5.12;53.55;92817.31;5045237;28;20022;-78
2023/12/14 22:04:23;;;;;;;2.70;1.70;;;;;;;5.03;54.18;92811.00;5031322;28;20048;-77
2023/12/14 22:06:48;;;;;;;3.78;1.98;;;;;;;4.90;55.04;92822.53;5030305;28;20049;-78
2023/12/14 22:09:15;;;;;;;1.70;1.40;;;;;;;4.77;56.35;92814.09;5044227;28;20033;-77
2023/12/14 22:11:41;;;;;;;1.25;1.15;;;;;;;4.69;57.06;92824.88;5040869;28;20120;-78
2023/12/14 22:14:07;;;;;;;1.20;1.10;;;;;;;4.57;57.48;92819.81;5051143;28;20119;-78
2023/12/14 22:16:33;;;;;;;1.10;0.98;;;;;;;4.51;57.85;92820.00;5043655;28;20401;-77
